createdAt,value
2018-06-01T00:00:31.328Z,101691.41
2018-06-01T00:14:15.873Z,101679.26
2018-06-01T00:16:43.517Z,101677.60
2018-06-01T00:19:11.086Z,101679.84
2018-06-01T00:30:49.976Z,101677.41
2018-06-01T00:33:17.699Z,101677.34
2018-06-01T00:35:45.328Z,101682.62
2018-06-01T00:47:13.534Z,101684.48
2018-06-01T00:49:41.164Z,101688.45
2018-06-01T00:52:08.863Z,101688.14
2018-06-01T01:03:23.542Z,101686.86
2018-06-01T01:05:51.172Z,101696.15
2018-06-01T01:08:18.737Z,101695.72
2018-06-01T01:10:46.299Z,101697.52
2018-06-01T01:37:51.072Z,101701.51
2018-06-01T01:40:18.676Z,101703.38
2018-06-01T01:42:46.293Z,101706.02
2018-06-01T01:45:14.001Z,101706.91
2018-06-01T01:56:49.907Z,101702.56
2018-06-01T01:59:17.533Z,101700.81
2018-06-01T02:01:45.080Z,101698.17
2018-06-01T02:13:21.150Z,101693.25
2018-06-01T02:15:48.673Z,101690.77
2018-06-01T02:18:16.250Z,101701.02
2018-06-01T02:29:51.767Z,101695.48
2018-06-01T02:32:19.342Z,101701.34
2018-06-01T02:34:46.968Z,101697.98
2018-06-01T02:46:16.835Z,101692.41
2018-06-01T02:48:44.431Z,101697.37
2018-06-01T02:51:12.102Z,101697.48
2018-06-01T03:02:56.607Z,101695.59
2018-06-01T03:05:24.165Z,101701.09
2018-06-01T03:07:51.808Z,101697.33
2018-06-01T03:10:19.396Z,101699.66
2018-06-01T03:21:34.744Z,101704.37
2018-06-01T03:24:02.395Z,101702.42
2018-06-01T03:26:29.968Z,101711.27
2018-06-01T03:40:05.049Z,101720.01
2018-06-01T03:42:32.652Z,101719.16
2018-06-01T03:45:00.196Z,101731.09
2018-06-01T03:56:41.293Z,101728.70
2018-06-01T03:59:08.897Z,101734.78
2018-06-01T04:01:36.531Z,101730.02
2018-06-01T04:13:08.220Z,101738.27
2018-06-01T04:15:35.839Z,101743.50
2018-06-01T04:18:03.424Z,101744.94
2018-06-01T04:29:39.815Z,101749.52
2018-06-01T04:32:07.392Z,101753.86
2018-06-01T04:34:34.983Z,101753.82
2018-06-01T04:37:06.292Z,101749.05
2018-06-01T04:48:37.283Z,101749.53
2018-06-01T04:51:04.908Z,101759.08
2018-06-01T04:53:32.499Z,101763.34
2018-06-01T05:05:08.400Z,101767.16
2018-06-01T05:07:36.047Z,101766.55
2018-06-01T05:10:03.768Z,101769.47
2018-06-01T05:21:40.471Z,101782.13
2018-06-01T05:24:08.133Z,101780.23
2018-06-01T05:26:35.756Z,101777.48
2018-06-01T05:38:11.855Z,101784.61
2018-06-01T05:40:39.482Z,101788.30
2018-06-01T05:43:07.147Z,101790.20
2018-06-01T05:54:43.131Z,101795.22
2018-06-01T05:57:10.708Z,101794.33
2018-06-01T05:59:38.530Z,101797.91
2018-06-01T06:02:07.344Z,101799.65
2018-06-01T06:13:43.849Z,101806.94
2018-06-01T06:16:11.559Z,101808.17
2018-06-01T06:18:39.275Z,101805.41
2018-06-01T06:30:15.138Z,101816.21
2018-06-01T06:32:42.694Z,101821.26
2018-06-01T06:35:10.340Z,101822.85
2018-06-01T06:44:06.808Z,101827.00
2018-06-01T06:46:37.495Z,101820.21
2018-06-01T06:49:05.036Z,101824.48
2018-06-01T06:51:32.652Z,101819.63
2018-06-01T06:54:01.490Z,101823.13
2018-06-01T06:56:33.501Z,101823.48
2018-06-01T06:59:07.347Z,101822.97
2018-06-01T07:01:38.321Z,101822.12
2018-06-01T07:04:06.015Z,101831.47
2018-06-01T07:06:33.641Z,101829.80
2018-06-01T07:09:01.191Z,101831.13
2018-06-01T07:11:29.054Z,101830.19
2018-06-01T07:13:59.374Z,101832.05
2018-06-01T07:16:30.175Z,101837.09
2018-06-01T07:21:34.496Z,101835.01
2018-06-01T07:24:02.046Z,101835.28
2018-06-01T07:26:29.658Z,101833.49
2018-06-01T07:29:01.253Z,101838.96
2018-06-01T07:31:33.101Z,101844.36
2018-06-01T07:34:06.284Z,101839.73
2018-06-01T07:36:41.199Z,101830.68
2018-06-01T07:39:08.774Z,101840.97
2018-06-01T07:41:36.379Z,101829.70
2018-06-01T07:44:03.991Z,101829.77
2018-06-01T07:46:33.281Z,101828.87
2018-06-01T07:49:05.447Z,101831.33
2018-06-01T07:51:39.047Z,101832.72
2018-06-01T07:54:32.511Z,101834.84
2018-06-01T07:57:00.171Z,101838.48
2018-06-01T07:59:28.084Z,101837.81
2018-06-01T08:01:55.707Z,101838.72
2018-06-01T09:23:59.917Z,101884.87
2018-06-01T09:57:05.969Z,101914.45
2018-06-01T09:59:54.633Z,101915.25
2018-06-01T10:35:39.119Z,101930.05
2018-06-01T11:05:31.994Z,101937.48
2018-06-01T11:41:21.704Z,101933.52
2018-06-01T12:14:19.377Z,101922.92
2018-06-01T12:28:59.275Z,101928.48
2018-06-01T12:35:54.948Z,101921.30
2018-06-01T12:47:31.450Z,101941.28
2018-06-01T12:49:59.015Z,101934.80
2018-06-01T12:52:26.675Z,101938.87
2018-06-01T13:04:03.000Z,101951.14
2018-06-01T13:06:30.587Z,101952.20
2018-06-01T13:08:58.207Z,101955.46
2018-06-01T13:23:13.803Z,101959.91
2018-06-01T13:25:41.349Z,101956.97
2018-06-01T13:37:17.422Z,101966.83
2018-06-01T13:39:45.180Z,101967.31
2018-06-01T13:42:12.924Z,101967.59
2018-06-01T13:44:42.940Z,101962.28
2018-06-01T13:56:18.700Z,101969.59
2018-06-01T13:58:46.456Z,101968.45
2018-06-01T14:01:14.012Z,101966.69
2018-06-01T14:12:49.600Z,101962.88
2018-06-01T14:15:17.221Z,101958.90
2018-06-01T14:17:44.974Z,101960.70
2018-06-01T14:29:20.855Z,101944.34
2018-06-01T14:31:48.407Z,101948.09
2018-06-01T14:34:16.219Z,101949.34
2018-06-01T14:45:52.199Z,101948.77
2018-06-01T14:51:06.700Z,101953.15
2018-06-01T15:02:55.518Z,101954.44
2018-06-01T15:05:23.076Z,101963.91
2018-06-01T15:07:51.306Z,101968.96
2018-06-01T15:10:18.983Z,101973.70
2018-06-01T15:21:55.467Z,101979.11
2018-06-01T15:24:23.191Z,101985.42
2018-06-01T15:26:50.738Z,101977.69
2018-06-01T15:34:42.964Z,101985.01
2018-06-01T15:37:11.217Z,101980.22
2018-06-01T15:39:38.757Z,101981.12
2018-06-01T15:42:06.302Z,101976.22
2018-06-01T15:44:33.994Z,101973.77
2018-06-01T15:47:05.920Z,101971.59
2018-06-01T15:56:15.861Z,101972.06
2018-06-01T15:58:43.421Z,101966.50
2018-06-01T16:01:10.995Z,101975.09
2018-06-01T16:03:43.072Z,101977.44
2018-06-01T16:11:43.447Z,101970.65
2018-06-01T16:14:14.835Z,101979.49
2018-06-01T16:16:43.153Z,101978.02
2018-06-01T16:19:10.918Z,101981.80
2018-06-01T16:27:06.318Z,101972.40
2018-06-01T16:29:41.216Z,101982.83
2018-06-01T16:32:08.745Z,101979.59
2018-06-01T16:34:36.322Z,101979.53
2018-06-01T16:37:04.040Z,101983.78
2018-06-01T16:43:02.623Z,101988.39
2018-06-01T16:48:46.851Z,101991.03
2018-06-01T16:51:17.100Z,101987.45
2018-06-01T16:53:46.440Z,101990.13
2018-06-01T16:59:15.700Z,101992.73
2018-06-01T17:04:22.980Z,101990.47
2018-06-01T17:06:53.062Z,101991.24
2018-06-01T17:09:20.667Z,101988.20
2018-06-01T17:21:40.427Z,101986.75
2018-06-01T17:26:43.003Z,101987.13
2018-06-01T17:40:56.912Z,101988.22
2018-06-01T17:43:24.461Z,101985.16
2018-06-01T17:45:52.117Z,101982.81
2018-06-01T17:57:29.623Z,101985.09
2018-06-01T17:59:57.492Z,101985.82
2018-06-01T18:02:25.114Z,101984.31
2018-06-01T18:14:02.268Z,101983.89
2018-06-01T18:16:31.599Z,101990.59
2018-06-01T18:18:59.298Z,101990.17
2018-06-01T18:30:03.602Z,102010.41
2018-06-01T18:32:34.830Z,102018.91
2018-06-01T18:35:02.387Z,102024.38
2018-06-01T18:37:30.449Z,102020.58
2018-06-01T18:48:35.353Z,102019.30
2018-06-01T18:51:02.873Z,102020.55
2018-06-01T18:53:30.518Z,102017.64
2018-06-01T18:59:09.614Z,102015.47
2018-06-01T19:57:06.432Z,102027.09
2018-06-01T19:59:33.989Z,102028.16
2018-06-01T20:02:01.555Z,102031.05
2018-06-01T20:04:29.263Z,102034.80
2018-06-01T20:06:58.152Z,102031.88
2018-06-01T20:09:30.603Z,102035.09
2018-06-01T20:12:17.844Z,102032.17
2018-06-01T20:17:31.487Z,102028.14
2018-06-01T20:19:59.039Z,102029.89
2018-06-01T20:22:26.834Z,102030.50
2018-06-01T20:24:55.201Z,102036.80
2018-06-01T20:27:37.431Z,102038.34
2018-06-01T20:30:07.779Z,102049.45
2018-06-01T20:32:36.369Z,102045.53
2018-06-01T20:35:03.969Z,102046.03
2018-06-01T20:37:31.582Z,102047.00
2018-06-01T20:39:59.303Z,102047.13
2018-06-01T20:42:31.480Z,102061.60
2018-06-01T20:44:59.828Z,102058.90
2018-06-01T20:47:30.773Z,102063.67
2018-06-01T20:49:58.340Z,102070.70
2018-06-01T20:52:25.863Z,102073.94
2018-06-01T20:54:54.302Z,102072.79
2018-06-01T20:57:22.862Z,102078.23
2018-06-01T20:59:53.799Z,102085.00
2018-06-01T21:02:31.453Z,102079.20
2018-06-01T21:04:59.673Z,102084.77
2018-06-01T21:07:27.349Z,102086.97
2018-06-01T21:09:54.855Z,102086.55
2018-06-01T21:12:22.579Z,102084.94
2018-06-01T21:14:51.444Z,102083.22
2018-06-01T21:17:22.027Z,102090.25
2018-06-01T21:19:54.280Z,102085.83
2018-06-01T21:22:22.959Z,102079.23
2018-06-01T21:24:50.587Z,102082.66
2018-06-01T21:27:18.134Z,102080.81
2018-06-01T21:29:45.738Z,102084.70
2018-06-01T21:32:14.140Z,102087.30
2018-06-01T21:34:46.459Z,102081.98
2018-06-01T21:37:19.708Z,102082.84
2018-06-01T21:42:34.183Z,102080.42
2018-06-01T21:45:01.728Z,102076.40
2018-06-01T21:47:29.340Z,102082.10
2018-06-01T21:49:59.045Z,102084.63
2018-06-01T21:52:38.819Z,102081.53
2018-06-01T21:55:08.926Z,102091.09
2018-06-01T22:00:32.707Z,102088.41
2018-06-01T22:03:00.313Z,102091.52
2018-06-01T22:05:27.942Z,102092.47
2018-06-01T22:07:55.551Z,102090.30
2018-06-01T22:10:25.883Z,102093.02
2018-06-01T22:12:55.760Z,102091.80
2018-06-01T22:18:26.252Z,102091.11
2018-06-01T22:20:53.920Z,102087.72
2018-06-01T22:23:24.286Z,102085.23
2018-06-01T22:25:53.625Z,102085.79
2018-06-01T22:28:23.678Z,102091.66
2018-06-01T22:30:51.432Z,102088.34
2018-06-01T22:33:20.880Z,102091.19
2018-06-01T22:35:48.473Z,102098.05
2018-06-01T22:38:16.600Z,102099.08
2018-06-01T22:40:44.233Z,102089.66
2018-06-01T22:43:11.862Z,102089.77
2018-06-01T22:45:40.895Z,102093.00
2018-06-01T22:48:08.570Z,102091.36
2018-06-01T22:50:36.155Z,102085.76
2018-06-01T22:53:03.755Z,102088.03
2018-06-01T22:55:31.433Z,102087.70
2018-06-01T22:57:59.011Z,102087.80
2018-06-01T23:00:30.719Z,102081.75
2018-06-01T23:03:00.245Z,102084.66
2018-06-01T23:05:27.945Z,102079.12
2018-06-01T23:07:55.619Z,102076.30
2018-06-01T23:10:23.207Z,102075.57
2018-06-01T23:12:50.770Z,102075.28
2018-06-01T23:15:18.366Z,102072.25
2018-06-01T23:17:47.121Z,102072.38
2018-06-01T23:20:15.531Z,102070.30
2018-06-01T23:22:43.235Z,102066.81
2018-06-01T23:25:10.856Z,102067.41
2018-06-01T23:27:38.376Z,102062.27
2018-06-01T23:30:06.011Z,102063.66
2018-06-01T23:32:33.629Z,102060.73
2018-06-01T23:35:01.875Z,102061.78
2018-06-01T23:37:30.476Z,102058.33
2018-06-01T23:39:58.105Z,102058.72
2018-06-01T23:42:25.677Z,102058.69
2018-06-01T23:44:53.286Z,102059.64
2018-06-01T23:47:20.851Z,102061.13
2018-06-01T23:49:48.464Z,102057.80
2018-06-01T23:52:16.302Z,102053.88
2018-06-01T23:54:44.001Z,102051.67
2018-06-01T23:57:11.595Z,102056.05
2018-06-01T23:59:39.131Z,102050.95
